»·PEaware :: N912A KPSC-KYKM

N912A :: KPSC-KYKM

FLIGHT INFORMATION

Flight Status: Arrived
Operator: Privately registered:
United States
More flights under this callsign
Pilot: Anonymous 16858 (16858)
Aircraft: Unknown
(RV10)
More flights by this aircraft type
Origin: KPSC Tri-Cities
United States
Destination: KYKM Yakima Air Term/Mcallister
United States
More flights between these airports :: More routes between these airports
Route: +PSC7 PSC V204 YKM
File this flight plan on PilotEdge
Remarks: Sample flight plan
Altitude:
(Current/Filed)
6,000ft
Speed:
(Current/Filed)
150kts
Departed: 09-Jun-20 12:21 PM
Arrived: 09-Jun-20 12:58 PM
Distance/Time
Traveled:
62nm/0:36
Distance/Time
To Go:
Arrived

Flight Plot

Page will automatically refresh every two minutes.


Map Options




Map Legend


Flown Route
Filed Route
Departure Airport
Arrival Airport
Navaid (VOR, NDB)
Fix

Horizontal Profiles

Position Reports

Time Latitude Longitude Heading Altitude Ground
Speed
09-Jun-20 11:56 46.260337 -119.116340 158 414ft 0kts
09-Jun-20 11:57 46.260699 -119.115971 272 413ft 2kts
09-Jun-20 11:58 46.260713 -119.115986 3 414ft 0kts
09-Jun-20 11:59 46.260713 -119.115986 3 414ft 0kts
09-Jun-20 12:00 46.260715 -119.115985 5 414ft 0kts
09-Jun-20 12:01 46.260723 -119.115984 10 414ft 0kts
09-Jun-20 12:02 46.260736 -119.115978 21 414ft 0kts
09-Jun-20 12:03 46.260736 -119.115978 21 414ft 0kts
09-Jun-20 12:04 46.260736 -119.115978 21 414ft 0kts
09-Jun-20 12:05 46.260736 -119.115978 21 414ft 0kts
09-Jun-20 12:06 46.260736 -119.115978 21 414ft 0kts
09-Jun-20 12:07 46.260736 -119.115978 21 414ft 0kts
09-Jun-20 12:08 46.260736 -119.115978 21 414ft 0kts
09-Jun-20 12:09 46.260736 -119.115978 21 414ft 0kts
09-Jun-20 12:10 46.260736 -119.115978 21 414ft 0kts
09-Jun-20 12:11 46.261332 -119.115543 64 414ft 9kts
09-Jun-20 12:12 46.262879 -119.115424 119 414ft 7kts
09-Jun-20 12:13 46.262560 -119.111278 70 414ft 21kts
09-Jun-20 12:14 46.263494 -119.107545 62 414ft 0kts
09-Jun-20 12:15 46.265159 -119.107729 340 414ft 29kts
09-Jun-20 12:16 46.268503 -119.108974 315 414ft 0kts
09-Jun-20 12:17 46.268503 -119.108974 315 414ft 0kts
09-Jun-20 12:18 46.268503 -119.108974 315 414ft 0kts
09-Jun-20 12:19 46.268660 -119.109185 313 414ft 6kts
09-Jun-20 12:20 46.254465 -119.129841 220 1264ft 125kts
09-Jun-20 12:21 46.227823 -119.164221 225 3234ft 128kts
09-Jun-20 12:23 46.202643 -119.197816 225 4946ft 121kts
09-Jun-20 12:24 46.175557 -119.230416 225 6028ft 152kts
09-Jun-20 12:25 46.139377 -119.275403 225 6001ft 179kts
09-Jun-20 12:26 46.118781 -119.330439 299 6001ft 165kts
09-Jun-20 12:27 46.141451 -119.387035 304 6000ft 165kts
09-Jun-20 12:28 46.165990 -119.443308 304 6000ft 165kts
09-Jun-20 12:29 46.195873 -119.492719 314 6000ft 164kts
09-Jun-20 12:30 46.227394 -119.540125 315 6000ft 164kts
09-Jun-20 12:31 46.258845 -119.587910 315 6000ft 164kts
09-Jun-20 12:32 46.290266 -119.635735 315 6000ft 164kts
09-Jun-20 12:33 46.321600 -119.683514 314 5999ft 164kts
09-Jun-20 12:34 46.352299 -119.730407 314 5999ft 164kts
09-Jun-20 12:35 46.383156 -119.779034 312 5998ft 164kts
09-Jun-20 12:36 46.413800 -119.828102 313 5993ft 164kts
09-Jun-20 12:37 46.441942 -119.879852 300 5986ft 164kts
09-Jun-20 12:38 46.457368 -119.942430 289 5980ft 165kts
09-Jun-20 12:38 46.469041 -119.994126 290 5974ft 164kts
09-Jun-20 12:40 46.485639 -120.067386 290 5991ft 163kts
09-Jun-20 12:41 46.499789 -120.130020 290 6009ft 163kts
09-Jun-20 12:41 46.511538 -120.182162 290 6009ft 163kts
09-Jun-20 12:43 46.528031 -120.255580 290 6009ft 163kts
09-Jun-20 12:43 46.539789 -120.308072 290 6009ft 163kts
09-Jun-20 12:44 46.553843 -120.370988 290 6009ft 163kts
09-Jun-20 12:46 46.571026 -120.443844 309 6002ft 162kts
09-Jun-20 12:46 46.603161 -120.472176 330 5809ft 160kts
09-Jun-20 12:47 46.639476 -120.502546 329 5018ft 144kts
09-Jun-20 12:48 46.671018 -120.532723 314 4501ft 121kts
09-Jun-20 12:49 46.686507 -120.575907 284 4024ft 120kts
09-Jun-20 12:50 46.683962 -120.622756 253 3597ft 116kts
09-Jun-20 12:51 46.666615 -120.658105 222 3604ft 106kts
09-Jun-20 12:52 46.640320 -120.675476 191 3607ft 104kts
09-Jun-20 12:53 46.609648 -120.670025 155 3303ft 125kts
09-Jun-20 12:54 46.590370 -120.632043 94 2502ft 116kts
09-Jun-20 12:55 46.582374 -120.589440 110 1596ft 102kts
09-Jun-20 12:56 46.572138 -120.557621 107 1106ft 57kts
09-Jun-20 12:57 46.571013 -120.548711 104 1103ft 11kts
09-Jun-20 12:58 46.569878 -120.544030 111 1103ft 0kts

Navigation Log

Ident Type
Flight plan parsing failed, navigation log unavailable